sensor_id;sensor_type;location;lat;lon;timestamp;P1;durP1;ratioP1;P2;durP2;ratioP2
31238;SDS011;17871;31.584;74.450;2023-02-12T00:01:52;162.10;;;59.65;;
31238;SDS011;17871;31.584;74.450;2023-02-12T00:04:21;158.75;;;63.65;;
31238;SDS011;17871;31.584;74.450;2023-02-12T00:06:50;150.93;;;59.22;;
31238;SDS011;17871;31.584;74.450;2023-02-12T00:09:20;131.43;;;50.90;;
31238;SDS011;17871;31.584;74.450;2023-02-12T00:11:49;148.80;;;51.75;;
31238;SDS011;17871;31.584;74.450;2023-02-12T00:14:18;117.53;;;45.42;;
31238;SDS011;17871;31.584;74.450;2023-02-12T00:16:47;119.30;;;46.13;;
31238;SDS011;17871;31.584;74.450;2023-02-12T00:19:17;123.65;;;45.97;;
31238;SDS011;17871;31.584;74.450;2023-02-12T00:21:46;108.78;;;43.80;;
31238;SDS011;17871;31.584;74.450;2023-02-12T00:24:15;109.03;;;41.05;;
31238;SDS011;17871;31.584;74.450;2023-02-12T00:26:44;126.55;;;41.35;;
31238;SDS011;17871;31.584;74.450;2023-02-12T00:29:15;126.32;;;43.45;;
31238;SDS011;17871;31.584;74.450;2023-02-12T00:31:44;116.50;;;43.08;;
31238;SDS011;17871;31.584;74.450;2023-02-12T00:34:14;114.07;;;43.10;;
31238;SDS011;17871;31.584;74.450;2023-02-12T00:36:43;118.00;;;47.80;;
31238;SDS011;17871;31.584;74.450;2023-02-12T00:39:13;129.18;;;49.13;;
31238;SDS011;17871;31.584;74.450;2023-02-12T00:41:42;144.38;;;49.72;;
31238;SDS011;17871;31.584;74.450;2023-02-12T00:47:09;124.15;;;45.63;;
31238;SDS011;17871;31.584;74.450;2023-02-12T00:49:38;105.65;;;45.33;;
31238;SDS011;17871;31.584;74.450;2023-02-12T00:52:07;130.85;;;44.70;;
31238;SDS011;17871;31.584;74.450;2023-02-12T00:54:37;117.90;;;44.58;;
31238;SDS011;17871;31.584;74.450;2023-02-12T00:57:06;107.28;;;42.70;;
31238;SDS011;17871;31.584;74.450;2023-02-12T01:02:48;113.32;;;42.08;;
31238;SDS011;17871;31.584;74.450;2023-02-12T01:05:19;122.20;;;42.30;;
31238;SDS011;17871;31.584;74.450;2023-02-12T01:07:51;115.95;;;42.67;;
31238;SDS011;17871;31.584;74.450;2023-02-12T01:10:23;124.85;;;47.83;;
31238;SDS011;17871;31.584;74.450;2023-02-12T01:12:55;126.05;;;46.67;;
31238;SDS011;17871;31.584;74.450;2023-02-12T01:15:25;108.80;;;45.95;;
31238;SDS011;17871;31.584;74.450;2023-02-12T01:18:00;103.80;;;44.38;;
31238;SDS011;17871;31.584;74.450;2023-02-12T01:20:30;143.35;;;49.17;;
31238;SDS011;17871;31.584;74.450;2023-02-12T01:22:59;119.97;;;49.22;;
31238;SDS011;17871;31.584;74.450;2023-02-12T01:25:29;124.13;;;50.78;;
31238;SDS011;17871;31.584;74.450;2023-02-12T01:27:58;150.45;;;53.00;;
31238;SDS011;17871;31.584;74.450;2023-02-12T01:30:28;151.45;;;57.35;;
31238;SDS011;17871;31.584;74.450;2023-02-12T01:32:57;154.93;;;57.50;;
31238;SDS011;17871;31.584;74.450;2023-02-12T01:35:28;171.85;;;55.97;;
31238;SDS011;17871;31.584;74.450;2023-02-12T01:37:59;137.70;;;56.13;;
31238;SDS011;17871;31.584;74.450;2023-02-12T01:40:29;125.57;;;49.85;;
31238;SDS011;17871;31.584;74.450;2023-02-12T01:43:01;131.20;;;47.70;;
31238;SDS011;17871;31.584;74.450;2023-02-12T01:48:04;125.90;;;48.28;;
31238;SDS011;17871;31.584;74.450;2023-02-12T01:50:35;114.45;;;44.88;;
31238;SDS011;17871;31.584;74.450;2023-02-12T01:53:04;102.78;;;41.95;;
31238;SDS011;17871;31.584;74.450;2023-02-12T01:55:33;108.28;;;41.10;;
31238;SDS011;17871;31.584;74.450;2023-02-12T01:58:03;104.20;;;40.65;;
31238;SDS011;17871;31.584;74.450;2023-02-12T02:00:34;109.03;;;41.55;;
31238;SDS011;17871;31.584;74.450;2023-02-12T02:03:04;106.45;;;38.85;;
31238;SDS011;17871;31.584;74.450;2023-02-12T02:08:18;86.43;;;37.60;;
31238;SDS011;17871;31.584;74.450;2023-02-12T02:14:48;102.13;;;37.58;;
31238;SDS011;17871;31.584;74.450;2023-02-12T02:39:02;129.43;;;48.20;;
31238;SDS011;17871;31.584;74.450;2023-02-12T02:44:17;155.02;;;53.65;;
31238;SDS011;17871;31.584;74.450;2023-02-12T02:46:51;103.80;;;43.40;;
31238;SDS011;17871;31.584;74.450;2023-02-12T02:49:23;137.52;;;50.65;;
31238;SDS011;17871;31.584;74.450;2023-02-12T02:51:59;138.68;;;50.15;;
31238;SDS011;17871;31.584;74.450;2023-02-12T02:54:43;153.07;;;55.58;;
31238;SDS011;17871;31.584;74.450;2023-02-12T02:59:57;154.77;;;53.83;;
31238;SDS011;17871;31.584;74.450;2023-02-12T03:02:51;148.77;;;46.97;;
31238;SDS011;17871;31.584;74.450;2023-02-12T03:05:31;133.88;;;42.28;;
31238;SDS011;17871;31.584;74.450;2023-02-12T03:08:14;100.25;;;38.42;;
31238;SDS011;17871;31.584;74.450;2023-02-12T03:10:52;115.00;;;41.42;;
31238;SDS011;17871;31.584;74.450;2023-02-12T03:13:32;119.43;;;42.35;;
31238;SDS011;17871;31.584;74.450;2023-02-12T03:16:13;92.07;;;33.75;;
31238;SDS011;17871;31.584;74.450;2023-02-12T03:18:49;86.13;;;35.83;;
31238;SDS011;17871;31.584;74.450;2023-02-12T03:21:30;85.25;;;33.15;;
31238;SDS011;17871;31.584;74.450;2023-02-12T03:26:45;116.07;;;36.10;;
31238;SDS011;17871;31.584;74.450;2023-02-12T03:29:22;86.57;;;34.83;;
31238;SDS011;17871;31.584;74.450;2023-02-12T03:32:01;89.90;;;32.63;;
31238;SDS011;17871;31.584;74.450;2023-02-12T03:35:09;77.65;;;26.33;;
31238;SDS011;17871;31.584;74.450;2023-02-12T03:38:35;77.88;;;30.60;;
31238;SDS011;17871;31.584;74.450;2023-02-12T03:40:50;75.80;;;28.02;;
31238;SDS011;17871;31.584;74.450;2023-02-12T03:47:26;99.40;;;30.60;;
31238;SDS011;17871;31.584;74.450;2023-02-12T03:50:20;76.30;;;27.20;;
31238;SDS011;17871;31.584;74.450;2023-02-12T03:52:51;69.63;;;27.33;;
31238;SDS011;17871;31.584;74.450;2023-02-12T03:55:21;89.25;;;30.20;;
31238;SDS011;17871;31.584;74.450;2023-02-12T03:57:51;94.38;;;28.55;;
31238;SDS011;17871;31.584;74.450;2023-02-12T04:04:27;92.97;;;27.52;;
31238;SDS011;17871;31.584;74.450;2023-02-12T04:06:58;67.65;;;27.70;;
31238;SDS011;17871;31.584;74.450;2023-02-12T04:09:30;71.28;;;27.10;;
31238;SDS011;17871;31.584;74.450;2023-02-12T04:20:10;70.80;;;25.20;;
31238;SDS011;17871;31.584;74.450;2023-02-12T04:31:54;61.45;;;21.23;;
31238;SDS011;17871;31.584;74.450;2023-02-12T04:39:54;51.97;;;19.23;;
31238;SDS011;17871;31.584;74.450;2023-02-12T04:42:26;51.78;;;20.20;;
31238;SDS011;17871;31.584;74.450;2023-02-12T04:44:55;39.95;;;16.38;;
31238;SDS011;17871;31.584;74.450;2023-02-12T04:47:26;42.50;;;15.90;;
31238;SDS011;17871;31.584;74.450;2023-02-12T04:49:55;36.67;;;13.85;;
31238;SDS011;17871;31.584;74.450;2023-02-12T04:52:25;30.38;;;12.98;;
31238;SDS011;17871;31.584;74.450;2023-02-12T04:54:54;37.10;;;12.32;;
31238;SDS011;17871;31.584;74.450;2023-02-12T04:57:24;42.47;;;17.50;;
31238;SDS011;17871;31.584;74.450;2023-02-12T04:59:54;43.00;;;13.73;;
31238;SDS011;17871;31.584;74.450;2023-02-12T05:02:24;37.25;;;13.95;;
31238;SDS011;17871;31.584;74.450;2023-02-12T05:08:34;48.65;;;13.27;;
31238;SDS011;17871;31.584;74.450;2023-02-12T05:11:04;54.20;;;15.18;;
31238;SDS011;17871;31.584;74.450;2023-02-12T05:13:35;38.40;;;14.40;;
31238;SDS011;17871;31.584;74.450;2023-02-12T05:16:06;45.17;;;16.13;;
31238;SDS011;17871;31.584;74.450;2023-02-12T05:18:36;41.38;;;14.25;;
31238;SDS011;17871;31.584;74.450;2023-02-12T05:21:05;46.28;;;16.77;;
31238;SDS011;17871;31.584;74.450;2023-02-12T05:23:35;50.85;;;14.77;;
31238;SDS011;17871;31.584;74.450;2023-02-12T05:26:15;33.40;;;12.25;;
31238;SDS011;17871;31.584;74.450;2023-02-12T05:28:46;67.03;;;20.50;;
31238;SDS011;17871;31.584;74.450;2023-02-12T05:31:18;36.05;;;14.23;;
31238;SDS011;17871;31.584;74.450;2023-02-12T05:33:49;32.65;;;11.55;;
31238;SDS011;17871;31.584;74.450;2023-02-12T05:36:20;39.90;;;13.45;;
31238;SDS011;17871;31.584;74.450;2023-02-12T05:38:51;26.67;;;10.65;;
31238;SDS011;17871;31.584;74.450;2023-02-12T05:41:21;33.78;;;11.05;;
31238;SDS011;17871;31.584;74.450;2023-02-12T05:43:52;33.17;;;11.27;;
31238;SDS011;17871;31.584;74.450;2023-02-12T05:46:21;41.17;;;9.77;;
31238;SDS011;17871;31.584;74.450;2023-02-12T05:48:52;33.90;;;9.57;;
31238;SDS011;17871;31.584;74.450;2023-02-12T05:51:22;36.17;;;9.38;;
31238;SDS011;17871;31.584;74.450;2023-02-12T05:54:00;46.40;;;10.95;;
31238;SDS011;17871;31.584;74.450;2023-02-12T05:56:32;47.53;;;11.30;;
31238;SDS011;17871;31.584;74.450;2023-02-12T05:59:07;33.08;;;9.07;;
31238;SDS011;17871;31.584;74.450;2023-02-12T06:01:42;32.78;;;10.63;;
31238;SDS011;17871;31.584;74.450;2023-02-12T06:04:21;25.75;;;7.50;;
31238;SDS011;17871;31.584;74.450;2023-02-12T06:06:52;33.20;;;10.75;;
31238;SDS011;17871;31.584;74.450;2023-02-12T06:09:23;38.63;;;9.77;;
31238;SDS011;17871;31.584;74.450;2023-02-12T06:11:52;20.55;;;9.00;;
31238;SDS011;17871;31.584;74.450;2023-02-12T06:14:21;46.97;;;11.25;;
31238;SDS011;17871;31.584;74.450;2023-02-12T06:16:50;25.92;;;9.32;;
31238;SDS011;17871;31.584;74.450;2023-02-12T06:19:21;24.55;;;9.00;;
31238;SDS011;17871;31.584;74.450;2023-02-12T06:21:51;25.45;;;9.05;;
31238;SDS011;17871;31.584;74.450;2023-02-12T06:24:23;36.70;;;10.00;;
31238;SDS011;17871;31.584;74.450;2023-02-12T06:26:53;65.07;;;12.38;;
31238;SDS011;17871;31.584;74.450;2023-02-12T06:29:22;30.30;;;10.05;;
31238;SDS011;17871;31.584;74.450;2023-02-12T06:31:52;30.33;;;11.18;;
31238;SDS011;17871;31.584;74.450;2023-02-12T06:34:21;23.73;;;10.95;;
31238;SDS011;17871;31.584;74.450;2023-02-12T06:36:50;34.10;;;10.50;;
31238;SDS011;17871;31.584;74.450;2023-02-12T06:39:19;34.35;;;12.18;;
31238;SDS011;17871;31.584;74.450;2023-02-12T06:41:48;41.28;;;11.63;;
31238;SDS011;17871;31.584;74.450;2023-02-12T06:44:18;80.78;;;15.23;;
31238;SDS011;17871;31.584;74.450;2023-02-12T06:46:47;42.97;;;10.18;;
31238;SDS011;17871;31.584;74.450;2023-02-12T06:49:17;21.60;;;10.50;;
31238;SDS011;17871;31.584;74.450;2023-02-12T06:51:46;37.63;;;11.00;;
31238;SDS011;17871;31.584;74.450;2023-02-12T06:54:16;23.52;;;10.27;;
31238;SDS011;17871;31.584;74.450;2023-02-12T06:56:45;41.25;;;11.45;;
31238;SDS011;17871;31.584;74.450;2023-02-12T06:59:15;26.40;;;9.13;;
31238;SDS011;17871;31.584;74.450;2023-02-12T07:01:44;34.13;;;10.02;;
31238;SDS011;17871;31.584;74.450;2023-02-12T07:04:13;31.88;;;11.02;;
31238;SDS011;17871;31.584;74.450;2023-02-12T07:06:43;38.63;;;9.75;;
31238;SDS011;17871;31.584;74.450;2023-02-12T07:09:12;18.55;;;8.45;;
31238;SDS011;17871;31.584;74.450;2023-02-12T07:11:41;25.95;;;10.75;;
31238;SDS011;17871;31.584;74.450;2023-02-12T07:14:14;42.15;;;9.07;;
31238;SDS011;17871;31.584;74.450;2023-02-12T07:16:44;21.75;;;8.20;;
31238;SDS011;17871;31.584;74.450;2023-02-12T07:19:13;39.50;;;9.35;;
31238;SDS011;17871;31.584;74.450;2023-02-12T07:21:43;18.10;;;8.10;;
31238;SDS011;17871;31.584;74.450;2023-02-12T07:24:13;51.95;;;10.57;;
31238;SDS011;17871;31.584;74.450;2023-02-12T07:29:14;23.10;;;8.80;;
31238;SDS011;17871;31.584;74.450;2023-02-12T07:31:43;35.92;;;7.70;;
31238;SDS011;17871;31.584;74.450;2023-02-12T07:34:13;32.40;;;8.60;;
31238;SDS011;17871;31.584;74.450;2023-02-12T07:36:42;24.27;;;8.75;;
31238;SDS011;17871;31.584;74.450;2023-02-12T07:39:11;23.95;;;9.52;;
31238;SDS011;17871;31.584;74.450;2023-02-12T07:41:41;23.65;;;7.50;;
31238;SDS011;17871;31.584;74.450;2023-02-12T07:44:10;33.17;;;7.25;;
31238;SDS011;17871;31.584;74.450;2023-02-12T07:46:44;21.60;;;6.53;;
31238;SDS011;17871;31.584;74.450;2023-02-12T07:49:19;25.10;;;7.32;;
31238;SDS011;17871;31.584;74.450;2023-02-12T07:51:49;15.45;;;5.05;;
31238;SDS011;17871;31.584;74.450;2023-02-12T07:54:18;28.60;;;6.13;;
31238;SDS011;17871;31.584;74.450;2023-02-12T07:56:47;15.50;;;5.07;;
31238;SDS011;17871;31.584;74.450;2023-02-12T07:59:19;44.60;;;6.78;;
31238;SDS011;17871;31.584;74.450;2023-02-12T08:01:49;25.13;;;5.80;;
31238;SDS011;17871;31.584;74.450;2023-02-12T08:04:20;15.82;;;5.18;;
31238;SDS011;17871;31.584;74.450;2023-02-12T08:06:52;36.80;;;6.20;;
31238;SDS011;17871;31.584;74.450;2023-02-12T08:09:24;29.42;;;7.30;;
31238;SDS011;17871;31.584;74.450;2023-02-12T08:11:55;25.83;;;5.60;;
31238;SDS011;17871;31.584;74.450;2023-02-12T08:14:25;23.05;;;6.50;;
31238;SDS011;17871;31.584;74.450;2023-02-12T08:16:55;33.17;;;5.82;;
31238;SDS011;17871;31.584;74.450;2023-02-12T08:19:23;28.75;;;5.40;;
31238;SDS011;17871;31.584;74.450;2023-02-12T08:21:54;23.20;;;6.03;;
31238;SDS011;17871;31.584;74.450;2023-02-12T08:24:24;16.60;;;5.18;;
31238;SDS011;17871;31.584;74.450;2023-02-12T08:26:53;17.38;;;5.65;;
31238;SDS011;17871;31.584;74.450;2023-02-12T08:29:24;34.13;;;5.82;;
31238;SDS011;17871;31.584;74.450;2023-02-12T08:31:56;26.25;;;6.40;;
31238;SDS011;17871;31.584;74.450;2023-02-12T08:34:31;19.73;;;4.50;;
31238;SDS011;17871;31.584;74.450;2023-02-12T08:37:03;12.68;;;4.05;;
31238;SDS011;17871;31.584;74.450;2023-02-12T08:39:33;41.55;;;14.82;;
31238;SDS011;17871;31.584;74.450;2023-02-12T08:42:02;36.13;;;8.68;;
31238;SDS011;17871;31.584;74.450;2023-02-12T08:44:32;20.40;;;6.35;;
31238;SDS011;17871;31.584;74.450;2023-02-12T08:47:02;13.13;;;4.13;;
31238;SDS011;17871;31.584;74.450;2023-02-12T08:49:34;19.42;;;4.93;;
31238;SDS011;17871;31.584;74.450;2023-02-12T08:52:04;13.43;;;5.05;;
31238;SDS011;17871;31.584;74.450;2023-02-12T08:54:34;13.25;;;3.85;;
31238;SDS011;17871;31.584;74.450;2023-02-12T08:57:03;53.88;;;7.47;;
31238;SDS011;17871;31.584;74.450;2023-02-12T08:59:32;36.40;;;5.57;;
31238;SDS011;17871;31.584;74.450;2023-02-12T09:02:01;16.95;;;5.38;;
31238;SDS011;17871;31.584;74.450;2023-02-12T09:04:35;31.00;;;4.65;;
31238;SDS011;17871;31.584;74.450;2023-02-12T09:07:05;68.15;;;6.80;;
31238;SDS011;17871;31.584;74.450;2023-02-12T09:09:37;20.80;;;4.50;;
31238;SDS011;17871;31.584;74.450;2023-02-12T09:12:06;17.65;;;5.07;;
31238;SDS011;17871;31.584;74.450;2023-02-12T09:14:36;9.45;;;4.47;;
31238;SDS011;17871;31.584;74.450;2023-02-12T09:17:05;30.98;;;7.28;;
31238;SDS011;17871;31.584;74.450;2023-02-12T09:19:34;46.20;;;6.22;;
31238;SDS011;17871;31.584;74.450;2023-02-12T09:22:04;28.58;;;5.10;;
31238;SDS011;17871;31.584;74.450;2023-02-12T09:24:33;21.67;;;4.70;;
31238;SDS011;17871;31.584;74.450;2023-02-12T09:27:02;13.50;;;3.72;;
31238;SDS011;17871;31.584;74.450;2023-02-12T09:29:31;40.05;;;5.50;;
31238;SDS011;17871;31.584;74.450;2023-02-12T09:32:00;48.30;;;5.82;;
31238;SDS011;17871;31.584;74.450;2023-02-12T09:34:35;6.78;;;3.38;;
31238;SDS011;17871;31.584;74.450;2023-02-12T09:37:05;12.95;;;3.45;;
31238;SDS011;17871;31.584;74.450;2023-02-12T09:39:34;13.18;;;4.70;;
31238;SDS011;17871;31.584;74.450;2023-02-12T09:42:09;12.18;;;3.83;;
31238;SDS011;17871;31.584;74.450;2023-02-12T09:45:06;19.20;;;4.80;;
31238;SDS011;17871;31.584;74.450;2023-02-12T09:48:06;26.48;;;5.20;;
31238;SDS011;17871;31.584;74.450;2023-02-12T09:50:56;29.52;;;6.47;;
31238;SDS011;17871;31.584;74.450;2023-02-12T09:53:30;25.40;;;4.85;;
31238;SDS011;17871;31.584;74.450;2023-02-12T09:56:04;52.10;;;6.50;;
31238;SDS011;17871;31.584;74.450;2023-02-12T09:58:45;39.40;;;4.40;;
31238;SDS011;17871;31.584;74.450;2023-02-12T10:01:20;12.82;;;4.13;;
31238;SDS011;17871;31.584;74.450;2023-02-12T10:03:50;23.52;;;4.45;;
31238;SDS011;17871;31.584;74.450;2023-02-12T10:25:58;16.85;;;3.95;;
31238;SDS011;17871;31.584;74.450;2023-02-12T10:28:40;21.65;;;4.70;;
31238;SDS011;17871;31.584;74.450;2023-02-12T10:33:56;17.50;;;5.50;;
31238;SDS011;17871;31.584;74.450;2023-02-12T10:39:12;22.38;;;4.10;;
31238;SDS011;17871;31.584;74.450;2023-02-12T10:41:44;42.45;;;4.93;;
31238;SDS011;17871;31.584;74.450;2023-02-12T10:44:28;32.50;;;4.40;;
31238;SDS011;17871;31.584;74.450;2023-02-12T10:46:58;27.55;;;3.58;;
31238;SDS011;17871;31.584;74.450;2023-02-12T10:49:29;45.45;;;6.68;;
31238;SDS011;17871;31.584;74.450;2023-02-12T10:52:02;14.60;;;4.75;;
31238;SDS011;17871;31.584;74.450;2023-02-12T10:54:41;26.85;;;4.43;;
31238;SDS011;17871;31.584;74.450;2023-02-12T10:59:55;27.83;;;4.93;;
31238;SDS011;17871;31.584;74.450;2023-02-12T11:02:41;16.95;;;3.67;;
31238;SDS011;17871;31.584;74.450;2023-02-12T11:05:29;27.00;;;4.40;;
31238;SDS011;17871;31.584;74.450;2023-02-12T11:08:02;9.15;;;3.60;;
31238;SDS011;17871;31.584;74.450;2023-02-12T11:10:35;18.67;;;2.97;;
31238;SDS011;17871;31.584;74.450;2023-02-12T11:13:24;32.65;;;5.15;;
31238;SDS011;17871;31.584;74.450;2023-02-12T11:15:55;12.35;;;4.85;;
31238;SDS011;17871;31.584;74.450;2023-02-12T11:18:28;32.35;;;4.82;;
31238;SDS011;17871;31.584;74.450;2023-02-12T11:21:07;20.63;;;4.13;;
31238;SDS011;17871;31.584;74.450;2023-02-12T11:23:42;71.40;;;7.43;;
31238;SDS011;17871;31.584;74.450;2023-02-12T11:28:58;20.48;;;6.22;;
31238;SDS011;17871;31.584;74.450;2023-02-12T11:31:59;25.67;;;5.65;;
31238;SDS011;17871;31.584;74.450;2023-02-12T11:34:29;35.70;;;5.20;;
31238;SDS011;17871;31.584;74.450;2023-02-12T11:36:59;14.25;;;3.75;;
31238;SDS011;17871;31.584;74.450;2023-02-12T11:39:33;21.85;;;4.95;;
31238;SDS011;17871;31.584;74.450;2023-02-12T11:42:16;17.30;;;4.55;;
31238;SDS011;17871;31.584;74.450;2023-02-12T11:44:54;28.90;;;6.13;;
31238;SDS011;17871;31.584;74.450;2023-02-12T11:47:26;17.23;;;4.20;;
31238;SDS011;17871;31.584;74.450;2023-02-12T11:50:08;19.50;;;5.50;;
31238;SDS011;17871;31.584;74.450;2023-02-12T11:52:56;18.27;;;8.35;;
31238;SDS011;17871;31.584;74.450;2023-02-12T11:55:34;21.55;;;6.38;;
31238;SDS011;17871;31.584;74.450;2023-02-12T11:58:14;24.40;;;7.00;;
31238;SDS011;17871;31.584;74.450;2023-02-12T12:00:48;25.60;;;8.98;;
31238;SDS011;17871;31.584;74.450;2023-02-12T12:05:55;34.83;;;4.93;;
31238;SDS011;17871;31.584;74.450;2023-02-12T12:14:02;16.40;;;5.43;;
31238;SDS011;17871;31.584;74.450;2023-02-12T12:22:38;39.60;;;8.70;;
31238;SDS011;17871;31.584;74.450;2023-02-12T12:25:28;55.50;;;8.00;;
31238;SDS011;17871;31.584;74.450;2023-02-12T12:33:44;24.23;;;6.45;;
31238;SDS011;17871;31.584;74.450;2023-02-12T12:42:17;50.33;;;7.60;;
31238;SDS011;17871;31.584;74.450;2023-02-12T12:44:58;32.13;;;7.35;;
31238;SDS011;17871;31.584;74.450;2023-02-12T12:50:34;119.75;;;11.90;;
31238;SDS011;17871;31.584;74.450;2023-02-12T12:53:29;111.13;;;13.30;;
31238;SDS011;17871;31.584;74.450;2023-02-12T12:56:28;34.50;;;10.00;;
31238;SDS011;17871;31.584;74.450;2023-02-12T12:59:17;41.30;;;10.27;;
31238;SDS011;17871;31.584;74.450;2023-02-12T13:13:34;37.85;;;11.45;;
31238;SDS011;17871;31.584;74.450;2023-02-12T13:16:10;36.28;;;13.95;;
31238;SDS011;17871;31.584;74.450;2023-02-12T13:27:05;52.45;;;14.43;;
31238;SDS011;17871;31.584;74.450;2023-02-12T13:29:50;30.13;;;13.18;;
31238;SDS011;17871;31.584;74.450;2023-02-12T13:32:31;52.38;;;13.80;;
31238;SDS011;17871;31.584;74.450;2023-02-12T13:35:22;83.90;;;16.10;;
31238;SDS011;17871;31.584;74.450;2023-02-12T13:37:57;45.63;;;18.38;;
31238;SDS011;17871;31.584;74.450;2023-02-12T13:40:29;48.40;;;17.13;;
31238;SDS011;17871;31.584;74.450;2023-02-12T13:43:13;61.08;;;19.73;;
31238;SDS011;17871;31.584;74.450;2023-02-12T13:51:46;71.53;;;17.95;;
31238;SDS011;17871;31.584;74.450;2023-02-12T13:58:37;64.10;;;22.02;;
31238;SDS011;17871;31.584;74.450;2023-02-12T14:01:11;86.15;;;24.38;;
31238;SDS011;17871;31.584;74.450;2023-02-12T14:04:14;72.60;;;25.60;;
31238;SDS011;17871;31.584;74.450;2023-02-12T14:07:05;75.72;;;28.23;;
31238;SDS011;17871;31.584;74.450;2023-02-12T14:14:54;67.35;;;24.95;;
31238;SDS011;17871;31.584;74.450;2023-02-12T14:20:06;86.93;;;26.67;;
31238;SDS011;17871;31.584;74.450;2023-02-12T14:27:53;81.90;;;29.58;;
31238;SDS011;17871;31.584;74.450;2023-02-12T14:35:41;82.82;;;27.65;;
31238;SDS011;17871;31.584;74.450;2023-02-12T14:40:48;64.90;;;24.83;;
31238;SDS011;17871;31.584;74.450;2023-02-12T14:43:30;61.38;;;22.70;;
31238;SDS011;17871;31.584;74.450;2023-02-12T14:49:00;66.57;;;23.33;;
31238;SDS011;17871;31.584;74.450;2023-02-12T14:51:45;98.03;;;25.90;;
31238;SDS011;17871;31.584;74.450;2023-02-12T14:54:35;107.40;;;27.55;;
31238;SDS011;17871;31.584;74.450;2023-02-12T15:05:38;96.30;;;28.55;;
31238;SDS011;17871;31.584;74.450;2023-02-12T15:10:49;64.38;;;21.40;;
31238;SDS011;17871;31.584;74.450;2023-02-12T15:13:30;61.35;;;21.45;;
31238;SDS011;17871;31.584;74.450;2023-02-12T15:19:01;55.88;;;20.40;;
31238;SDS011;17871;31.584;74.450;2023-02-12T15:21:41;51.63;;;20.88;;
31238;SDS011;17871;31.584;74.450;2023-02-12T15:24:19;54.17;;;21.83;;
31238;SDS011;17871;31.584;74.450;2023-02-12T15:26:59;88.88;;;22.92;;
31238;SDS011;17871;31.584;74.450;2023-02-12T15:29:30;53.42;;;21.80;;
31238;SDS011;17871;31.584;74.450;2023-02-12T15:32:13;75.97;;;23.55;;
31238;SDS011;17871;31.584;74.450;2023-02-12T15:34:47;71.72;;;23.70;;
31238;SDS011;17871;31.584;74.450;2023-02-12T15:37:20;78.93;;;23.23;;
31238;SDS011;17871;31.584;74.450;2023-02-12T15:39:55;68.18;;;22.65;;
31238;SDS011;17871;31.584;74.450;2023-02-12T15:47:43;45.75;;;19.38;;
31238;SDS011;17871;31.584;74.450;2023-02-12T15:50:14;52.05;;;20.27;;
31238;SDS011;17871;31.584;74.450;2023-02-12T15:52:45;46.50;;;18.70;;
31238;SDS011;17871;31.584;74.450;2023-02-12T15:55:18;54.22;;;19.55;;
31238;SDS011;17871;31.584;74.450;2023-02-12T15:57:50;66.10;;;18.02;;
31238;SDS011;17871;31.584;74.450;2023-02-12T16:00:31;121.72;;;22.10;;
31238;SDS011;17871;31.584;74.450;2023-02-12T16:03:19;58.75;;;16.98;;
31238;SDS011;17871;31.584;74.450;2023-02-12T16:06:08;48.28;;;17.95;;
31238;SDS011;17871;31.584;74.450;2023-02-12T16:11:15;64.47;;;18.38;;
31238;SDS011;17871;31.584;74.450;2023-02-12T16:13:52;81.05;;;20.25;;
31238;SDS011;17871;31.584;74.450;2023-02-12T16:16:58;85.13;;;22.05;;
31238;SDS011;17871;31.584;74.450;2023-02-12T16:19:29;50.03;;;21.35;;
31238;SDS011;17871;31.584;74.450;2023-02-12T16:24:43;148.57;;;35.50;;
31238;SDS011;17871;31.584;74.450;2023-02-12T16:27:16;86.55;;;37.28;;
31238;SDS011;17871;31.584;74.450;2023-02-12T16:29:53;100.10;;;37.00;;
31238;SDS011;17871;31.584;74.450;2023-02-12T16:40:21;111.10;;;49.85;;
31238;SDS011;17871;31.584;74.450;2023-02-12T16:50:47;215.40;;;80.57;;
31238;SDS011;17871;31.584;74.450;2023-02-12T16:53:24;224.52;;;82.10;;
31238;SDS011;17871;31.584;74.450;2023-02-12T16:55:59;234.20;;;78.80;;
31238;SDS011;17871;31.584;74.450;2023-02-12T16:58:30;215.07;;;70.70;;
31238;SDS011;17871;31.584;74.450;2023-02-12T17:01:01;139.05;;;49.67;;
31238;SDS011;17871;31.584;74.450;2023-02-12T17:03:33;135.00;;;45.33;;
31238;SDS011;17871;31.584;74.450;2023-02-12T17:06:03;128.00;;;45.30;;
31238;SDS011;17871;31.584;74.450;2023-02-12T17:08:32;231.93;;;52.53;;
31238;SDS011;17871;31.584;74.450;2023-02-12T17:11:02;153.63;;;50.63;;
31238;SDS011;17871;31.584;74.450;2023-02-12T17:13:31;170.85;;;53.70;;
31238;SDS011;17871;31.584;74.450;2023-02-12T17:16:01;151.23;;;45.33;;
31238;SDS011;17871;31.584;74.450;2023-02-12T17:18:30;118.85;;;42.50;;
31238;SDS011;17871;31.584;74.450;2023-02-12T17:21:04;154.45;;;47.75;;
31238;SDS011;17871;31.584;74.450;2023-02-12T17:23:54;137.70;;;47.25;;
31238;SDS011;17871;31.584;74.450;2023-02-12T17:26:23;144.75;;;48.20;;
31238;SDS011;17871;31.584;74.450;2023-02-12T17:28:53;165.43;;;50.35;;
31238;SDS011;17871;31.584;74.450;2023-02-12T17:31:22;150.43;;;52.42;;
31238;SDS011;17871;31.584;74.450;2023-02-12T17:33:52;163.13;;;59.67;;
31238;SDS011;17871;31.584;74.450;2023-02-12T17:36:21;102.63;;;33.97;;
31238;SDS011;17871;31.584;74.450;2023-02-12T17:38:51;60.22;;;23.63;;
31238;SDS011;17871;31.584;74.450;2023-02-12T17:41:20;51.03;;;19.40;;
31238;SDS011;17871;31.584;74.450;2023-02-12T17:43:51;43.70;;;16.45;;
31238;SDS011;17871;31.584;74.450;2023-02-12T17:46:21;58.65;;;15.98;;
31238;SDS011;17871;31.584;74.450;2023-02-12T17:51:22;35.92;;;13.90;;
31238;SDS011;17871;31.584;74.450;2023-02-12T17:53:52;31.35;;;12.95;;
31238;SDS011;17871;31.584;74.450;2023-02-12T17:56:21;36.78;;;13.55;;
31238;SDS011;17871;31.584;74.450;2023-02-12T17:58:52;23.65;;;11.88;;
31238;SDS011;17871;31.584;74.450;2023-02-12T18:01:22;32.65;;;14.38;;
31238;SDS011;17871;31.584;74.450;2023-02-12T18:03:52;47.53;;;16.55;;
31238;SDS011;17871;31.584;74.450;2023-02-12T18:06:23;63.90;;;22.55;;
31238;SDS011;17871;31.584;74.450;2023-02-12T18:08:56;113.35;;;48.25;;
31238;SDS011;17871;31.584;74.450;2023-02-12T18:11:27;150.98;;;60.63;;
31238;SDS011;17871;31.584;74.450;2023-02-12T18:13:57;159.82;;;64.00;;
31238;SDS011;17871;31.584;74.450;2023-02-12T18:16:28;159.82;;;62.60;;
31238;SDS011;17871;31.584;74.450;2023-02-12T18:18:59;149.95;;;56.97;;
31238;SDS011;17871;31.584;74.450;2023-02-12T18:21:31;150.18;;;51.38;;
31238;SDS011;17871;31.584;74.450;2023-02-12T18:24:02;118.60;;;52.88;;
31238;SDS011;17871;31.584;74.450;2023-02-12T18:26:31;152.93;;;53.97;;
31238;SDS011;17871;31.584;74.450;2023-02-12T18:29:01;149.55;;;53.70;;
31238;SDS011;17871;31.584;74.450;2023-02-12T18:31:30;169.07;;;56.88;;
31238;SDS011;17871;31.584;74.450;2023-02-12T18:34:00;147.63;;;52.70;;
31238;SDS011;17871;31.584;74.450;2023-02-12T18:36:31;142.30;;;50.47;;
31238;SDS011;17871;31.584;74.450;2023-02-12T18:39:00;151.13;;;52.85;;
31238;SDS011;17871;31.584;74.450;2023-02-12T18:41:30;178.18;;;60.42;;
31238;SDS011;17871;31.584;74.450;2023-02-12T18:44:03;157.80;;;54.33;;